sensor_id;sensor_type;location;lat;lon;timestamp;temperature;humidity
16404;DHT22;8311;50.158;8.642;2023-01-10T00:01:24;21.00;49.60
16404;DHT22;8311;50.158;8.642;2023-01-10T00:04:18;21.00;49.40
16404;DHT22;8311;50.158;8.642;2023-01-10T00:07:12;21.00;49.20
16404;DHT22;8311;50.158;8.642;2023-01-10T00:10:05;21.00;48.90
16404;DHT22;8311;50.158;8.642;2023-01-10T00:12:59;20.90;48.80
16404;DHT22;8311;50.158;8.642;2023-01-10T00:16:09;20.90;48.50
16404;DHT22;8311;50.158;8.642;2023-01-10T00:19:03;20.90;48.20
16404;DHT22;8311;50.158;8.642;2023-01-10T00:21:57;20.90;48.00
16404;DHT22;8311;50.158;8.642;2023-01-10T00:25:05;20.90;48.10
16404;DHT22;8311;50.158;8.642;2023-01-10T00:27:59;20.90;47.80
16404;DHT22;8311;50.158;8.642;2023-01-10T00:31:02;20.90;47.60
16404;DHT22;8311;50.158;8.642;2023-01-10T00:33:57;20.80;47.50
16404;DHT22;8311;50.158;8.642;2023-01-10T00:36:50;20.80;47.30
16404;DHT22;8311;50.158;8.642;2023-01-10T00:39:44;20.80;47.20
16404;DHT22;8311;50.158;8.642;2023-01-10T00:42:37;20.80;47.20
16404;DHT22;8311;50.158;8.642;2023-01-10T00:45:47;20.80;47.20
16404;DHT22;8311;50.158;8.642;2023-01-10T00:48:41;20.80;47.20
16404;DHT22;8311;50.158;8.642;2023-01-10T00:51:34;20.80;47.20
16404;DHT22;8311;50.158;8.642;2023-01-10T00:54:28;20.80;47.20
16404;DHT22;8311;50.158;8.642;2023-01-10T00:57:22;20.70;47.20
16404;DHT22;8311;50.158;8.642;2023-01-10T01:00:15;20.70;47.20
16404;DHT22;8311;50.158;8.642;2023-01-10T01:03:08;20.70;47.20
16404;DHT22;8311;50.158;8.642;2023-01-10T01:06:04;20.70;47.10
16404;DHT22;8311;50.158;8.642;2023-01-10T01:08:58;20.70;47.20
16404;DHT22;8311;50.158;8.642;2023-01-10T01:11:51;20.70;47.10
16404;DHT22;8311;50.158;8.642;2023-01-10T01:14:45;20.70;47.00
16404;DHT22;8311;50.158;8.642;2023-01-10T01:17:39;20.70;47.00
16404;DHT22;8311;50.158;8.642;2023-01-10T01:20:32;20.70;47.00
16404;DHT22;8311;50.158;8.642;2023-01-10T01:23:25;20.70;47.00
16404;DHT22;8311;50.158;8.642;2023-01-10T01:26:19;20.70;47.00
16404;DHT22;8311;50.158;8.642;2023-01-10T01:29:12;20.70;47.00
16404;DHT22;8311;50.158;8.642;2023-01-10T01:32:07;20.60;47.00
16404;DHT22;8311;50.158;8.642;2023-01-10T01:35:01;20.60;46.90
16404;DHT22;8311;50.158;8.642;2023-01-10T01:37:54;20.60;46.70
16404;DHT22;8311;50.158;8.642;2023-01-10T01:40:47;20.60;46.70
16404;DHT22;8311;50.158;8.642;2023-01-10T01:43:59;20.60;46.60
16404;DHT22;8311;50.158;8.642;2023-01-10T01:46:59;20.60;46.60
16404;DHT22;8311;50.158;8.642;2023-01-10T01:49:54;20.60;46.60
16404;DHT22;8311;50.158;8.642;2023-01-10T01:52:50;20.60;46.50
16404;DHT22;8311;50.158;8.642;2023-01-10T01:55:45;20.60;46.50
16404;DHT22;8311;50.158;8.642;2023-01-10T01:58:43;20.60;46.40
16404;DHT22;8311;50.158;8.642;2023-01-10T02:01:41;20.60;46.40
16404;DHT22;8311;50.158;8.642;2023-01-10T02:04:40;20.60;46.40
16404;DHT22;8311;50.158;8.642;2023-01-10T02:07:39;20.50;46.40
16404;DHT22;8311;50.158;8.642;2023-01-10T02:10:37;20.60;46.30
16404;DHT22;8311;50.158;8.642;2023-01-10T02:13:32;20.50;46.30
16404;DHT22;8311;50.158;8.642;2023-01-10T02:16:27;20.50;46.30
16404;DHT22;8311;50.158;8.642;2023-01-10T02:19:26;20.50;46.10
16404;DHT22;8311;50.158;8.642;2023-01-10T02:29:40;20.50;45.70
16404;DHT22;8311;50.158;8.642;2023-01-10T02:32:42;20.50;45.60
16404;DHT22;8311;50.158;8.642;2023-01-10T02:36:00;20.50;45.60
16404;DHT22;8311;50.158;8.642;2023-01-10T02:39:01;20.50;45.60
16404;DHT22;8311;50.158;8.642;2023-01-10T02:41:58;20.40;45.40
16404;DHT22;8311;50.158;8.642;2023-01-10T02:44:59;20.40;45.30
16404;DHT22;8311;50.158;8.642;2023-01-10T02:47:57;20.40;45.20
16404;DHT22;8311;50.158;8.642;2023-01-10T02:50:55;20.40;45.10
16404;DHT22;8311;50.158;8.642;2023-01-10T02:53:53;20.40;45.00
16404;DHT22;8311;50.158;8.642;2023-01-10T03:00:27;20.40;45.00
16404;DHT22;8311;50.158;8.642;2023-01-10T03:03:32;20.40;44.90
16404;DHT22;8311;50.158;8.642;2023-01-10T03:06:32;20.40;44.70
16404;DHT22;8311;50.158;8.642;2023-01-10T03:09:32;20.40;44.70
16404;DHT22;8311;50.158;8.642;2023-01-10T03:12:31;20.40;44.70
16404;DHT22;8311;50.158;8.642;2023-01-10T03:15:31;20.40;44.70
16404;DHT22;8311;50.158;8.642;2023-01-10T03:18:32;20.40;44.70
16404;DHT22;8311;50.158;8.642;2023-01-10T03:21:28;20.30;44.60
16404;DHT22;8311;50.158;8.642;2023-01-10T03:24:25;20.30;44.80
16404;DHT22;8311;50.158;8.642;2023-01-10T03:27:26;20.30;44.70
16404;DHT22;8311;50.158;8.642;2023-01-10T03:30:26;20.30;44.60
16404;DHT22;8311;50.158;8.642;2023-01-10T03:33:23;20.30;44.50
16404;DHT22;8311;50.158;8.642;2023-01-10T03:36:29;20.30;44.50
16404;DHT22;8311;50.158;8.642;2023-01-10T03:39:30;20.30;44.40
16404;DHT22;8311;50.158;8.642;2023-01-10T03:42:37;20.30;44.40
16404;DHT22;8311;50.158;8.642;2023-01-10T03:45:58;20.30;44.50
16404;DHT22;8311;50.158;8.642;2023-01-10T03:48:53;20.30;44.40
16404;DHT22;8311;50.158;8.642;2023-01-10T03:51:51;20.30;44.50
16404;DHT22;8311;50.158;8.642;2023-01-10T03:54:45;20.30;44.40
16404;DHT22;8311;50.158;8.642;2023-01-10T03:57:41;20.20;44.50
16404;DHT22;8311;50.158;8.642;2023-01-10T04:00:36;20.20;44.50
16404;DHT22;8311;50.158;8.642;2023-01-10T04:03:30;20.20;44.40
16404;DHT22;8311;50.158;8.642;2023-01-10T04:06:23;20.20;44.40
16404;DHT22;8311;50.158;8.642;2023-01-10T04:09:17;20.20;44.40
16404;DHT22;8311;50.158;8.642;2023-01-10T04:12:11;20.20;44.40
16404;DHT22;8311;50.158;8.642;2023-01-10T04:15:05;20.20;44.50
16404;DHT22;8311;50.158;8.642;2023-01-10T04:17:58;20.20;44.40
16404;DHT22;8311;50.158;8.642;2023-01-10T04:20:51;20.20;44.30
16404;DHT22;8311;50.158;8.642;2023-01-10T04:23:44;20.20;44.30
16404;DHT22;8311;50.158;8.642;2023-01-10T04:26:38;20.20;44.30
16404;DHT22;8311;50.158;8.642;2023-01-10T04:29:32;20.20;44.30
16404;DHT22;8311;50.158;8.642;2023-01-10T04:32:25;20.20;44.20
16404;DHT22;8311;50.158;8.642;2023-01-10T04:35:18;20.10;44.20
16404;DHT22;8311;50.158;8.642;2023-01-10T04:38:11;20.10;44.10
16404;DHT22;8311;50.158;8.642;2023-01-10T04:41:04;20.10;44.10
16404;DHT22;8311;50.158;8.642;2023-01-10T04:43:58;20.10;44.10
16404;DHT22;8311;50.158;8.642;2023-01-10T04:46:52;20.10;43.90
16404;DHT22;8311;50.158;8.642;2023-01-10T04:49:45;20.10;43.90
16404;DHT22;8311;50.158;8.642;2023-01-10T04:52:41;20.10;43.90
16404;DHT22;8311;50.158;8.642;2023-01-10T04:55:34;20.10;43.90
16404;DHT22;8311;50.158;8.642;2023-01-10T04:58:27;20.10;43.90
16404;DHT22;8311;50.158;8.642;2023-01-10T05:01:23;20.10;43.90
16404;DHT22;8311;50.158;8.642;2023-01-10T05:04:17;20.10;43.90
16404;DHT22;8311;50.158;8.642;2023-01-10T05:07:12;20.10;43.90
16404;DHT22;8311;50.158;8.642;2023-01-10T05:10:08;20.10;43.90
16404;DHT22;8311;50.158;8.642;2023-01-10T05:13:01;20.10;43.90
16404;DHT22;8311;50.158;8.642;2023-01-10T05:15:54;20.00;44.60
16404;DHT22;8311;50.158;8.642;2023-01-10T05:18:51;20.00;43.90
16404;DHT22;8311;50.158;8.642;2023-01-10T05:21:44;20.00;43.80
16404;DHT22;8311;50.158;8.642;2023-01-10T05:24:37;20.10;43.70
16404;DHT22;8311;50.158;8.642;2023-01-10T05:27:30;20.00;43.50
16404;DHT22;8311;50.158;8.642;2023-01-10T05:30:23;20.00;43.50
16404;DHT22;8311;50.158;8.642;2023-01-10T05:33:16;20.00;43.40
16404;DHT22;8311;50.158;8.642;2023-01-10T05:36:10;20.00;43.40
16404;DHT22;8311;50.158;8.642;2023-01-10T05:39:03;20.00;43.50
16404;DHT22;8311;50.158;8.642;2023-01-10T05:41:56;20.00;43.50
16404;DHT22;8311;50.158;8.642;2023-01-10T05:44:49;20.00;43.50
16404;DHT22;8311;50.158;8.642;2023-01-10T05:47:42;20.00;43.60
16404;DHT22;8311;50.158;8.642;2023-01-10T05:50:35;20.00;43.60
16404;DHT22;8311;50.158;8.642;2023-01-10T05:53:30;20.00;43.70
16404;DHT22;8311;50.158;8.642;2023-01-10T05:56:23;19.90;43.60
16404;DHT22;8311;50.158;8.642;2023-01-10T05:59:16;19.90;43.70
16404;DHT22;8311;50.158;8.642;2023-01-10T06:02:19;19.90;43.70
16404;DHT22;8311;50.158;8.642;2023-01-10T06:05:14;19.90;43.50
16404;DHT22;8311;50.158;8.642;2023-01-10T06:08:08;19.90;43.60
16404;DHT22;8311;50.158;8.642;2023-01-10T06:11:02;19.90;43.80
16404;DHT22;8311;50.158;8.642;2023-01-10T06:13:56;19.90;43.70
16404;DHT22;8311;50.158;8.642;2023-01-10T06:16:49;19.90;43.60
16404;DHT22;8311;50.158;8.642;2023-01-10T06:19:42;19.90;43.50
16404;DHT22;8311;50.158;8.642;2023-01-10T06:22:35;19.90;43.50
16404;DHT22;8311;50.158;8.642;2023-01-10T06:25:29;19.90;43.50
16404;DHT22;8311;50.158;8.642;2023-01-10T06:28:23;19.90;43.50
16404;DHT22;8311;50.158;8.642;2023-01-10T06:31:17;19.90;43.60
16404;DHT22;8311;50.158;8.642;2023-01-10T06:34:13;19.90;43.50
16404;DHT22;8311;50.158;8.642;2023-01-10T06:37:06;19.90;43.50
16404;DHT22;8311;50.158;8.642;2023-01-10T06:40:00;19.90;43.50
16404;DHT22;8311;50.158;8.642;2023-01-10T06:42:54;19.90;43.40
16404;DHT22;8311;50.158;8.642;2023-01-10T06:45:48;19.90;43.50
16404;DHT22;8311;50.158;8.642;2023-01-10T06:48:43;19.90;43.60
16404;DHT22;8311;50.158;8.642;2023-01-10T06:51:36;19.90;43.60
16404;DHT22;8311;50.158;8.642;2023-01-10T06:54:29;19.80;43.90
16404;DHT22;8311;50.158;8.642;2023-01-10T06:57:22;19.80;43.80
16404;DHT22;8311;50.158;8.642;2023-01-10T07:00:17;19.90;43.90
16404;DHT22;8311;50.158;8.642;2023-01-10T07:03:11;19.80;43.80
16404;DHT22;8311;50.158;8.642;2023-01-10T07:06:07;19.80;43.70
16404;DHT22;8311;50.158;8.642;2023-01-10T07:09:01;19.80;43.50
16404;DHT22;8311;50.158;8.642;2023-01-10T07:11:55;19.80;43.50
16404;DHT22;8311;50.158;8.642;2023-01-10T07:14:52;19.80;43.40
16404;DHT22;8311;50.158;8.642;2023-01-10T07:17:45;19.80;43.50
16404;DHT22;8311;50.158;8.642;2023-01-10T07:20:40;19.80;43.30
16404;DHT22;8311;50.158;8.642;2023-01-10T07:23:33;19.80;43.10
16404;DHT22;8311;50.158;8.642;2023-01-10T07:26:27;19.80;43.10
16404;DHT22;8311;50.158;8.642;2023-01-10T07:29:20;19.80;43.00
16404;DHT22;8311;50.158;8.642;2023-01-10T07:32:13;19.80;43.10
16404;DHT22;8311;50.158;8.642;2023-01-10T07:35:08;19.80;43.10
16404;DHT22;8311;50.158;8.642;2023-01-10T07:38:02;19.80;43.90
16404;DHT22;8311;50.158;8.642;2023-01-10T07:40:55;19.70;43.30
16404;DHT22;8311;50.158;8.642;2023-01-10T07:43:48;19.70;43.30
16404;DHT22;8311;50.158;8.642;2023-01-10T07:46:41;19.70;43.40
16404;DHT22;8311;50.158;8.642;2023-01-10T07:49:34;19.70;43.40
16404;DHT22;8311;50.158;8.642;2023-01-10T07:52:27;19.70;43.50
16404;DHT22;8311;50.158;8.642;2023-01-10T07:55:23;19.70;43.50
16404;DHT22;8311;50.158;8.642;2023-01-10T07:58:16;19.70;43.50
16404;DHT22;8311;50.158;8.642;2023-01-10T08:01:10;19.70;43.50
16404;DHT22;8311;50.158;8.642;2023-01-10T08:04:04;19.70;43.60
16404;DHT22;8311;50.158;8.642;2023-01-10T08:06:57;19.70;43.60
16404;DHT22;8311;50.158;8.642;2023-01-10T08:09:50;19.70;43.50
16404;DHT22;8311;50.158;8.642;2023-01-10T08:12:45;19.70;43.60
16404;DHT22;8311;50.158;8.642;2023-01-10T08:15:39;19.70;43.80
16404;DHT22;8311;50.158;8.642;2023-01-10T08:18:33;19.70;43.90
16404;DHT22;8311;50.158;8.642;2023-01-10T08:21:26;19.70;43.90
16404;DHT22;8311;50.158;8.642;2023-01-10T08:24:19;19.70;44.00
16404;DHT22;8311;50.158;8.642;2023-01-10T08:27:12;19.70;44.20
16404;DHT22;8311;50.158;8.642;2023-01-10T08:30:08;19.70;44.00
16404;DHT22;8311;50.158;8.642;2023-01-10T08:33:01;19.70;44.20
16404;DHT22;8311;50.158;8.642;2023-01-10T08:35:55;19.70;44.00
16404;DHT22;8311;50.158;8.642;2023-01-10T08:38:48;19.70;44.00
16404;DHT22;8311;50.158;8.642;2023-01-10T08:41:41;19.70;44.10
16404;DHT22;8311;50.158;8.642;2023-01-10T08:44:35;19.70;44.10
16404;DHT22;8311;50.158;8.642;2023-01-10T08:47:30;19.70;44.10
16404;DHT22;8311;50.158;8.642;2023-01-10T08:50:24;19.70;44.20
16404;DHT22;8311;50.158;8.642;2023-01-10T08:53:17;19.70;44.30
16404;DHT22;8311;50.158;8.642;2023-01-10T08:56:10;19.70;44.10
16404;DHT22;8311;50.158;8.642;2023-01-10T08:59:03;19.70;44.00
16404;DHT22;8311;50.158;8.642;2023-01-10T09:01:57;19.70;44.10
16404;DHT22;8311;50.158;8.642;2023-01-10T09:04:51;19.70;44.30
16404;DHT22;8311;50.158;8.642;2023-01-10T09:07:44;19.80;44.30
16404;DHT22;8311;50.158;8.642;2023-01-10T09:10:38;19.80;44.30
16404;DHT22;8311;50.158;8.642;2023-01-10T09:13:33;19.80;44.20
16404;DHT22;8311;50.158;8.642;2023-01-10T09:16:26;19.80;43.50
16404;DHT22;8311;50.158;8.642;2023-01-10T09:19:19;19.80;43.60
16404;DHT22;8311;50.158;8.642;2023-01-10T09:22:13;19.90;44.40
16404;DHT22;8311;50.158;8.642;2023-01-10T09:25:07;19.80;43.60
16404;DHT22;8311;50.158;8.642;2023-01-10T09:28:01;19.40;39.60
16404;DHT22;8311;50.158;8.642;2023-01-10T09:30:55;19.40;42.90
16404;DHT22;8311;50.158;8.642;2023-01-10T09:33:48;19.50;43.00
16404;DHT22;8311;50.158;8.642;2023-01-10T09:36:41;19.50;44.20
16404;DHT22;8311;50.158;8.642;2023-01-10T09:39:36;19.60;43.90
16404;DHT22;8311;50.158;8.642;2023-01-10T09:42:44;19.70;43.60
16404;DHT22;8311;50.158;8.642;2023-01-10T09:45:48;19.70;43.90
16404;DHT22;8311;50.158;8.642;2023-01-10T09:48:50;19.80;44.10
16404;DHT22;8311;50.158;8.642;2023-01-10T09:51:47;19.80;43.70
16404;DHT22;8311;50.158;8.642;2023-01-10T09:54:43;19.80;43.20
16404;DHT22;8311;50.158;8.642;2023-01-10T09:57:36;19.80;43.20
16404;DHT22;8311;50.158;8.642;2023-01-10T10:00:35;19.90;43.40
16404;DHT22;8311;50.158;8.642;2023-01-10T10:03:35;19.90;43.30
16404;DHT22;8311;50.158;8.642;2023-01-10T10:06:32;19.90;43.50
16404;DHT22;8311;50.158;8.642;2023-01-10T10:09:28;19.90;43.80
16404;DHT22;8311;50.158;8.642;2023-01-10T10:12:30;19.90;44.00
16404;DHT22;8311;50.158;8.642;2023-01-10T10:15:32;20.00;44.30
16404;DHT22;8311;50.158;8.642;2023-01-10T10:18:36;20.00;44.30
16404;DHT22;8311;50.158;8.642;2023-01-10T10:21:38;20.10;44.60
16404;DHT22;8311;50.158;8.642;2023-01-10T10:24:43;20.10;44.60
16404;DHT22;8311;50.158;8.642;2023-01-10T10:27:52;20.10;44.70
16404;DHT22;8311;50.158;8.642;2023-01-10T10:30:56;20.10;44.80
16404;DHT22;8311;50.158;8.642;2023-01-10T10:33:57;20.10;44.70
16404;DHT22;8311;50.158;8.642;2023-01-10T10:36:56;20.10;44.70
16404;DHT22;8311;50.158;8.642;2023-01-10T10:39:54;20.10;44.80
16404;DHT22;8311;50.158;8.642;2023-01-10T10:42:52;20.10;44.70
16404;DHT22;8311;50.158;8.642;2023-01-10T10:45:47;20.10;44.60
16404;DHT22;8311;50.158;8.642;2023-01-10T10:48:47;20.10;44.60
16404;DHT22;8311;50.158;8.642;2023-01-10T10:51:48;20.10;44.80
16404;DHT22;8311;50.158;8.642;2023-01-10T10:54:42;20.10;44.90
16404;DHT22;8311;50.158;8.642;2023-01-10T10:57:39;20.10;45.00
16404;DHT22;8311;50.158;8.642;2023-01-10T11:00:52;20.10;45.10
16404;DHT22;8311;50.158;8.642;2023-01-10T11:03:47;20.10;45.20
16404;DHT22;8311;50.158;8.642;2023-01-10T11:06:42;20.10;45.30
16404;DHT22;8311;50.158;8.642;2023-01-10T11:09:39;20.10;45.40
16404;DHT22;8311;50.158;8.642;2023-01-10T11:12:33;20.10;45.40
16404;DHT22;8311;50.158;8.642;2023-01-10T11:15:38;20.10;45.20
16404;DHT22;8311;50.158;8.642;2023-01-10T11:18:33;20.10;45.80
16404;DHT22;8311;50.158;8.642;2023-01-10T11:21:29;20.10;45.50
16404;DHT22;8311;50.158;8.642;2023-01-10T11:24:26;20.20;45.80
16404;DHT22;8311;50.158;8.642;2023-01-10T11:27:22;20.20;46.00
16404;DHT22;8311;50.158;8.642;2023-01-10T11:30:19;20.30;46.30
16404;DHT22;8311;50.158;8.642;2023-01-10T11:33:18;20.30;46.40
16404;DHT22;8311;50.158;8.642;2023-01-10T11:36:14;20.40;46.60
16404;DHT22;8311;50.158;8.642;2023-01-10T11:39:13;20.40;46.90
16404;DHT22;8311;50.158;8.642;2023-01-10T11:42:28;20.50;47.10
16404;DHT22;8311;50.158;8.642;2023-01-10T11:45:27;20.50;47.10
16404;DHT22;8311;50.158;8.642;2023-01-10T11:48:24;20.60;47.30
16404;DHT22;8311;50.158;8.642;2023-01-10T11:51:44;20.60;47.40
16404;DHT22;8311;50.158;8.642;2023-01-10T11:54:39;20.70;47.40
16404;DHT22;8311;50.158;8.642;2023-01-10T11:57:33;20.70;47.40
16404;DHT22;8311;50.158;8.642;2023-01-10T12:00:33;20.70;47.50
16404;DHT22;8311;50.158;8.642;2023-01-10T12:03:29;20.80;47.60
16404;DHT22;8311;50.158;8.642;2023-01-10T12:06:24;20.80;47.60
16404;DHT22;8311;50.158;8.642;2023-01-10T12:09:36;20.90;47.70
16404;DHT22;8311;50.158;8.642;2023-01-10T12:12:32;21.00;47.70
16404;DHT22;8311;50.158;8.642;2023-01-10T12:15:27;20.90;47.70
16404;DHT22;8311;50.158;8.642;2023-01-10T12:18:21;21.00;47.90
16404;DHT22;8311;50.158;8.642;2023-01-10T12:21:20;21.00;47.90
16404;DHT22;8311;50.158;8.642;2023-01-10T12:24:22;21.10;48.00
16404;DHT22;8311;50.158;8.642;2023-01-10T12:27:22;21.10;48.00
16404;DHT22;8311;50.158;8.642;2023-01-10T12:30:20;21.20;48.00
16404;DHT22;8311;50.158;8.642;2023-01-10T12:33:20;21.20;48.00
16404;DHT22;8311;50.158;8.642;2023-01-10T12:36:34;21.20;48.70
16404;DHT22;8311;50.158;8.642;2023-01-10T12:39:30;21.30;48.10
16404;DHT22;8311;50.158;8.642;2023-01-10T12:42:33;21.30;48.30
16404;DHT22;8311;50.158;8.642;2023-01-10T12:45:50;21.40;48.40
16404;DHT22;8311;50.158;8.642;2023-01-10T12:48:48;21.40;48.50
16404;DHT22;8311;50.158;8.642;2023-01-10T12:51:45;21.40;48.60
16404;DHT22;8311;50.158;8.642;2023-01-10T12:54:40;21.50;48.60
16404;DHT22;8311;50.158;8.642;2023-01-10T12:57:37;21.50;48.50
16404;DHT22;8311;50.158;8.642;2023-01-10T13:00:34;21.50;48.60
16404;DHT22;8311;50.158;8.642;2023-01-10T13:03:38;21.50;48.60
16404;DHT22;8311;50.158;8.642;2023-01-10T13:06:32;21.60;48.70
16404;DHT22;8311;50.158;8.642;2023-01-10T13:09:28;21.60;48.60
16404;DHT22;8311;50.158;8.642;2023-01-10T13:12:27;21.60;48.70
16404;DHT22;8311;50.158;8.642;2023-01-10T13:15:30;21.70;48.70
16404;DHT22;8311;50.158;8.642;2023-01-10T13:18:27;21.70;48.70
16404;DHT22;8311;50.158;8.642;2023-01-10T13:21:20;21.70;48.80
16404;DHT22;8311;50.158;8.642;2023-01-10T13:24:19;21.70;48.80
16404;DHT22;8311;50.158;8.642;2023-01-10T13:27:18;21.80;49.40
16404;DHT22;8311;50.158;8.642;2023-01-10T13:30:25;21.80;48.80
16404;DHT22;8311;50.158;8.642;2023-01-10T13:33:24;21.90;49.00
16404;DHT22;8311;50.158;8.642;2023-01-10T13:36:20;21.90;49.00
16404;DHT22;8311;50.158;8.642;2023-01-10T13:39:22;21.90;49.00
16404;DHT22;8311;50.158;8.642;2023-01-10T13:42:28;21.90;49.00
16404;DHT22;8311;50.158;8.642;2023-01-10T13:45:38;21.90;49.00
16404;DHT22;8311;50.158;8.642;2023-01-10T13:48:35;21.90;49.00
16404;DHT22;8311;50.158;8.642;2023-01-10T13:51:29;22.00;49.00
16404;DHT22;8311;50.158;8.642;2023-01-10T13:54:24;22.00;49.10
16404;DHT22;8311;50.158;8.642;2023-01-10T13:57:52;22.00;49.00
16404;DHT22;8311;50.158;8.642;2023-01-10T14:00:48;22.00;49.00
16404;DHT22;8311;50.158;8.642;2023-01-10T14:04:00;22.10;49.00
16404;DHT22;8311;50.158;8.642;2023-01-10T14:06:55;22.10;49.00
16404;DHT22;8311;50.158;8.642;2023-01-10T14:09:50;22.10;49.00
16404;DHT22;8311;50.158;8.642;2023-01-10T14:12:49;22.10;49.00
16404;DHT22;8311;50.158;8.642;2023-01-10T14:15:45;22.10;49.00
16404;DHT22;8311;50.158;8.642;2023-01-10T14:18:39;22.10;49.00
16404;DHT22;8311;50.158;8.642;2023-01-10T14:21:40;22.20;49.00
16404;DHT22;8311;50.158;8.642;2023-01-10T14:24:41;22.20;49.10
16404;DHT22;8311;50.158;8.642;2023-01-10T14:27:41;22.20;49.10
16404;DHT22;8311;50.158;8.642;2023-01-10T14:30:37;22.20;49.20
16404;DHT22;8311;50.158;8.642;2023-01-10T14:33:32;22.20;49.30
16404;DHT22;8311;50.158;8.642;2023-01-10T14:36:29;22.20;49.40
16404;DHT22;8311;50.158;8.642;2023-01-10T14:39:24;22.20;49.40
16404;DHT22;8311;50.158;8.642;2023-01-10T14:42:19;22.30;49.40
16404;DHT22;8311;50.158;8.642;2023-01-10T14:45:19;22.30;49.40
16404;DHT22;8311;50.158;8.642;2023-01-10T14:48:39;22.30;49.40
16404;DHT22;8311;50.158;8.642;2023-01-10T14:51:32;22.30;49.40
16404;DHT22;8311;50.158;8.642;2023-01-10T14:54:27;22.40;49.50
16404;DHT22;8311;50.158;8.642;2023-01-10T14:57:22;22.40;49.50
16404;DHT22;8311;50.158;8.642;2023-01-10T15:00:16;22.40;49.50
16404;DHT22;8311;50.158;8.642;2023-01-10T15:03:16;22.40;49.50
16404;DHT22;8311;50.158;8.642;2023-01-10T15:06:10;22.40;49.50
16404;DHT22;8311;50.158;8.642;2023-01-10T15:09:03;22.40;49.60
16404;DHT22;8311;50.158;8.642;2023-01-10T15:12:03;22.40;49.60
16404;DHT22;8311;50.158;8.642;2023-01-10T15:15:01;22.50;49.70
16404;DHT22;8311;50.158;8.642;2023-01-10T15:17:55;22.50;49.70
16404;DHT22;8311;50.158;8.642;2023-01-10T15:20:48;22.50;49.80
16404;DHT22;8311;50.158;8.642;2023-01-10T15:23:45;22.50;49.80
16404;DHT22;8311;50.158;8.642;2023-01-10T15:26:38;22.50;49.80
16404;DHT22;8311;50.158;8.642;2023-01-10T15:29:34;22.50;49.90
16404;DHT22;8311;50.158;8.642;2023-01-10T15:32:31;22.50;50.00
16404;DHT22;8311;50.158;8.642;2023-01-10T15:35:25;22.50;49.90
16404;DHT22;8311;50.158;8.642;2023-01-10T15:38:27;22.50;50.00
16404;DHT22;8311;50.158;8.642;2023-01-10T15:41:22;22.50;50.60
16404;DHT22;8311;50.158;8.642;2023-01-10T15:44:31;22.60;50.00
16404;DHT22;8311;50.158;8.642;2023-01-10T15:47:35;22.60;50.00
16404;DHT22;8311;50.158;8.642;2023-01-10T15:50:31;22.60;50.00
16404;DHT22;8311;50.158;8.642;2023-01-10T15:53:48;22.60;50.00
16404;DHT22;8311;50.158;8.642;2023-01-10T15:56:47;22.60;50.00
16404;DHT22;8311;50.158;8.642;2023-01-10T15:59:46;22.70;50.10
16404;DHT22;8311;50.158;8.642;2023-01-10T16:02:42;22.60;50.10
16404;DHT22;8311;50.158;8.642;2023-01-10T16:05:35;22.60;50.10
16404;DHT22;8311;50.158;8.642;2023-01-10T16:08:30;22.70;50.10
16404;DHT22;8311;50.158;8.642;2023-01-10T16:11:31;22.70;50.10
16404;DHT22;8311;50.158;8.642;2023-01-10T16:14:44;22.70;50.10
16404;DHT22;8311;50.158;8.642;2023-01-10T16:17:37;22.70;50.20
16404;DHT22;8311;50.158;8.642;2023-01-10T16:20:34;22.70;50.20
16404;DHT22;8311;50.158;8.642;2023-01-10T16:23:31;22.70;50.30
16404;DHT22;8311;50.158;8.642;2023-01-10T16:26:26;22.70;50.40
16404;DHT22;8311;50.158;8.642;2023-01-10T16:29:19;22.70;50.40
16404;DHT22;8311;50.158;8.642;2023-01-10T16:32:13;22.70;50.40
16404;DHT22;8311;50.158;8.642;2023-01-10T16:35:07;22.80;50.50
16404;DHT22;8311;50.158;8.642;2023-01-10T16:38:03;22.80;50.40
16404;DHT22;8311;50.158;8.642;2023-01-10T16:40:57;22.80;50.50
16404;DHT22;8311;50.158;8.642;2023-01-10T16:43:51;22.80;50.40
16404;DHT22;8311;50.158;8.642;2023-01-10T16:46:43;22.80;50.50
16404;DHT22;8311;50.158;8.642;2023-01-10T16:49:37;22.80;50.40
16404;DHT22;8311;50.158;8.642;2023-01-10T16:52:32;22.80;50.40
16404;DHT22;8311;50.158;8.642;2023-01-10T16:55:32;22.90;50.40
16404;DHT22;8311;50.158;8.642;2023-01-10T16:58:27;22.80;50.40
16404;DHT22;8311;50.158;8.642;2023-01-10T17:01:22;22.90;51.10
16404;DHT22;8311;50.158;8.642;2023-01-10T17:04:19;22.90;50.50
16404;DHT22;8311;50.158;8.642;2023-01-10T17:07:13;22.90;50.50
16404;DHT22;8311;50.158;8.642;2023-01-10T17:10:06;22.90;50.60
16404;DHT22;8311;50.158;8.642;2023-01-10T17:13:02;22.90;50.60
16404;DHT22;8311;50.158;8.642;2023-01-10T17:15:56;22.90;50.60
16404;DHT22;8311;50.158;8.642;2023-01-10T17:18:50;23.00;50.60
16404;DHT22;8311;50.158;8.642;2023-01-10T17:21:56;23.00;50.60
16404;DHT22;8311;50.158;8.642;2023-01-10T17:24:51;23.00;50.70
16404;DHT22;8311;50.158;8.642;2023-01-10T17:27:45;23.00;50.70
16404;DHT22;8311;50.158;8.642;2023-01-10T17:30:40;22.90;50.70
16404;DHT22;8311;50.158;8.642;2023-01-10T17:33:34;22.90;50.70
16404;DHT22;8311;50.158;8.642;2023-01-10T17:36:27;23.00;50.70
16404;DHT22;8311;50.158;8.642;2023-01-10T17:39:24;23.00;50.70
16404;DHT22;8311;50.158;8.642;2023-01-10T17:42:17;23.00;50.80
16404;DHT22;8311;50.158;8.642;2023-01-10T17:45:10;23.00;50.80
16404;DHT22;8311;50.158;8.642;2023-01-10T17:48:06;23.00;50.80
16404;DHT22;8311;50.158;8.642;2023-01-10T17:50:59;23.00;50.70
16404;DHT22;8311;50.158;8.642;2023-01-10T17:53:54;23.00;51.40
16404;DHT22;8311;50.158;8.642;2023-01-10T17:56:46;23.00;50.80
16404;DHT22;8311;50.158;8.642;2023-01-10T17:59:40;23.10;50.90
16404;DHT22;8311;50.158;8.642;2023-01-10T18:02:36;23.00;50.80
16404;DHT22;8311;50.158;8.642;2023-01-10T18:05:30;23.10;51.40
16404;DHT22;8311;50.158;8.642;2023-01-10T18:08:26;23.10;50.90
16404;DHT22;8311;50.158;8.642;2023-01-10T18:11:19;23.00;50.90
16404;DHT22;8311;50.158;8.642;2023-01-10T18:14:14;23.10;50.90
16404;DHT22;8311;50.158;8.642;2023-01-10T18:17:23;23.10;51.00
16404;DHT22;8311;50.158;8.642;2023-01-10T18:20:17;23.10;51.00
16404;DHT22;8311;50.158;8.642;2023-01-10T18:23:12;23.10;51.10
16404;DHT22;8311;50.158;8.642;2023-01-10T18:26:16;23.10;51.10
16404;DHT22;8311;50.158;8.642;2023-01-10T18:29:11;23.10;51.10
16404;DHT22;8311;50.158;8.642;2023-01-10T18:32:05;23.10;51.10
16404;DHT22;8311;50.158;8.642;2023-01-10T18:34:58;23.10;51.10
16404;DHT22;8311;50.158;8.642;2023-01-10T18:37:51;23.10;51.20
16404;DHT22;8311;50.158;8.642;2023-01-10T18:40:49;23.20;51.20
16404;DHT22;8311;50.158;8.642;2023-01-10T18:43:43;23.20;51.20
16404;DHT22;8311;50.158;8.642;2023-01-10T18:46:37;23.20;51.20
16404;DHT22;8311;50.158;8.642;2023-01-10T18:49:31;23.20;51.30
16404;DHT22;8311;50.158;8.642;2023-01-10T18:52:25;23.20;51.30
16404;DHT22;8311;50.158;8.642;2023-01-10T18:55:17;23.20;51.40
16404;DHT22;8311;50.158;8.642;2023-01-10T18:58:12;23.20;51.30
16404;DHT22;8311;50.158;8.642;2023-01-10T19:01:07;23.20;51.30
16404;DHT22;8311;50.158;8.642;2023-01-10T19:04:01;23.20;51.30